Latest Weather Observations for Cloncurry

IDQ60801

Issued at 12:32 pm EST Tuesday 12 December 2017 (issued every 30 minutes, with the page automatically refreshed every 10 minutes)

About weather observations | Map of weather stations | Latest weather observations for QLD | Other Formats
Station Details ID: 029141 Name: CLONCURRY AIRPORT Lat: -20.67 Lon: 140.50 Height: 186.0 m
Data from the previous 72 hours. | See also: Recent months at Cloncurry
Date/Time
EST
Temp
°C
App
Temp
°C
Dew
Point
°C
Rel
Hum
%
Delta-T
°C
Wind Press
QNH
hPa
Press
MSL
hPa
Rain since
9am
mm
Dir  Spd
km/h
Gust
km/h
Spd
kts
Gust
kts
12/12:30pm 38.3 35.9 11.4 20 16.2 NW 15 24 8 13 1009.6 1008.1 0.0
12/12:00pm 36.6 34.4 13.4 25 14.3 NNW 17 30 9 16 1010.2 1008.7 0.0
12/11:30am 36.5 34.1 13.9 26 14.0 N 19 32 10 17 1010.7 1009.2 0.0
12/11:00am 35.6 33.0 13.7 27 13.5 NNE 20 30 11 16 1011.1 1009.6 0.0
12/10:30am 35.4 32.9 14.1 28 13.2 NNE 20 33 11 18 1011.6 1010.2 0.0
12/10:00am 34.3 31.7 13.7 29 12.7 NNE 20 28 11 15 1012.0 1010.6 0.0
12/09:30am 33.1 30.6 11.0 26 13.0 NE 15 26 8 14 1012.1 1010.7 0.0
12/09:00am 33.0 29.4 9.7 24 13.4 ENE 19 28 10 15 1012.2 1010.8 0.0
12/08:30am 31.6 26.9 9.2 25 12.7 ENE 24 30 13 16 1012.1 1010.7 0.0
12/08:00am 30.8 26.1 9.1 26 12.2 E 24 30 13 16 1011.8 1010.4 0.0
12/07:30am 29.8 24.4 8.2 26 11.9 E 26 33 14 18 1011.3 1009.8 0.0
12/07:00am 29.0 24.0 8.1 27 11.5 ESE 24 32 13 17 1011.0 1009.5 0.0
12/06:30am 28.4 24.0 7.6 27 11.3 ESE 20 26 11 14 1010.6 1009.1 0.0
12/06:00am 28.1 23.6 6.8 26 11.4 ESE 20 26 11 14 1010.0 1008.5 0.0
12/05:30am 28.4 23.7 5.9 24 11.9 SE 20 26 11 14 1009.9 1008.4 0.0
12/05:00am 29.0 23.5 5.8 23 12.3 SE 24 30 13 16 1009.5 1008.0 0.0
12/04:30am 29.0 24.4 5.8 23 12.3 ESE 19 24 10 13 1009.3 1007.8 0.0
12/04:00am 28.0 25.3 7.3 27 11.2 ESE 11 15 6 8 1009.1 1007.6 0.0
12/03:30am 27.5 25.5 6.3 26 11.2 ENE 6 7 3 4 1008.7 1007.2 0.0
12/03:00am 29.2 26.7 6.6 24 12.1 ENE 9 11 5 6 1008.6 1007.1 0.0
12/02:30am 29.9 26.9 5.9 22 12.8 ENE 11 13 6 7 1008.7 1007.2 0.0
12/02:00am 31.3 27.1 5.7 20 13.7 E 17 22 9 12 1008.7 1007.2 0.0
12/01:30am 31.4 26.8 5.8 20 13.7 E 19 20 10 11 1008.7 1007.2 0.0
12/01:00am 31.4 28.4 5.8 20 13.7 SSE 11 15 6 8 1008.7 1007.2 0.0
12/12:30am 30.9 27.9 6.0 21 13.3 SSE 11 13 6 7 1009.2 1007.7 0.0
12/12:00am 32.0 29.5 4.7 18 14.4 SSE 7 7 4 4 1009.4 1007.9 0.0
 
Date/Time
EST
Temp
°C
App
Temp
°C
Dew
Point
°C
Rel
Hum
%
Delta-T
°C
Wind Press
QNH
hPa
Press
MSL
hPa
Rain since
9am
mm
Dir  Spd
km/h
Gust
km/h
Spd
kts
Gust
kts
11/11:30pm 33.3 30.6 5.8 18 14.9 SSE 9 11 5 6 1009.6 1008.1 0.0
11/11:00pm 31.9 28.9 6.2 20 13.9 ESE 11 19 6 10 1009.5 1008.0 0.0
11/10:30pm 32.7 30.5 5.3 18 14.7 E 6 9 3 5 1009.2 1007.7 0.0
11/10:00pm 34.0 30.7 4.6 16 15.7 E 11 17 6 9 1008.7 1007.2 0.0
11/09:30pm 33.9 32.9 5.4 17 15.4 CALM 0 6 0 3 1008.2 1006.7 0.0
11/09:00pm 34.5 32.1 4.1 15 16.2 ENE 6 7 3 4 1007.8 1006.4 0.0
11/08:30pm 35.8 33.4 4.2 14 16.9 ENE 6 7 3 4 1007.6 1006.2 0.0
11/08:00pm 36.7 33.8 4.9 14 17.3 ENE 9 11 5 6 1007.4 1006.0 0.0
11/07:30pm 38.1 34.9 4.9 13 18.2 ENE 11 15 6 8 1007.0 1005.6 0.0
11/07:00pm 39.0 36.1 4.4 12 18.9 SSE 9 11 5 6 1006.8 1005.4 0.0
11/06:30pm 39.5 36.0 3.6 11 19.4 SE 11 15 6 8 1006.5 1005.0 0.0
11/06:00pm 40.0 36.8 5.2 12 19.4 SSE 11 22 6 12 1006.3 1004.8 0.0
11/05:30pm 40.1 37.3 5.3 12 19.3 SW 9 15 5 8 1006.3 1004.8 0.0
11/05:00pm 39.6 35.2 4.9 12 19.2 SSW 17 22 9 12 1006.3 1004.8 0.0
11/04:30pm 40.5 37.4 5.6 12 19.5 SSE 11 17 6 9 1006.4 1004.9 0.0
11/04:00pm 40.6 36.8 5.7 12 19.6 SSW 15 20 8 11 1006.6 1005.1 0.0
11/03:30pm 40.4 37.5 6.7 13 19.1 SSE 11 17 6 9 1006.9 1005.5 0.0
11/03:00pm 40.2 36.9 6.5 13 19.1 ESE 13 20 7 11 1007.2 1005.8 0.0
11/02:30pm 40.0 37.5 6.4 13 19.0 SSW 9 24 5 13 1007.8 1006.4 0.0
11/02:00pm 39.3 35.7 6.9 14 18.4 N 15 24 8 13 1008.4 1006.9 0.0
11/01:30pm 39.1 36.0 8.7 16 17.7 ENE 15 28 8 15 1009.1 1007.6 0.0
11/01:00pm 38.4 36.8 11.5 20 16.3 NNW 11 22 6 12 1009.7 1008.2 0.0
11/12:30pm 37.8 36.6 11.7 21 15.8 N 9 17 5 9 1010.4 1008.9 0.0
11/12:00pm 37.9 35.5 12.5 22 15.5 NE 17 26 9 14 1011.0 1009.5 0.0
11/11:30am 36.5 33.4 13.3 25 14.3 N 22 32 12 17 1011.7 1010.3 0.0
11/11:00am 35.7 32.6 14.4 28 13.3 N 24 33 13 18 1012.1 1010.7 0.0
11/10:30am 35.2 32.1 14.5 29 12.9 NNE 24 35 13 19 1012.3 1010.9 0.0
11/10:00am 34.5 31.4 14.4 30 12.5 NNE 24 37 13 20 1012.6 1011.2 0.0
11/09:30am 33.3 30.2 14.4 32 11.7 NNE 24 33 13 18 1012.9 1011.5 0.0
11/09:00am 32.1 27.5 12.3 29 11.8 NE 28 39 15 21 1012.9 1011.5 0.0
11/08:30am 31.5 27.4 11.3 29 11.8 ENE 24 35 13 19 1012.9 1011.5 0.0
11/08:00am 31.0 26.7 10.9 29 11.7 E 24 32 13 17 1012.4 1011.0 0.0
11/07:30am 29.5 24.9 8.0 26 11.8 ESE 22 28 12 15 1012.1 1010.7 0.0
11/07:00am 28.5 25.0 7.1 26 11.5 SE 15 22 8 12 1011.9 1010.5 0.0
11/06:30am 27.5 24.2 6.3 26 11.2 SSE 13 15 7 8 1011.4 1009.9 0.0
11/06:00am 27.3 23.5 5.6 25 11.3 SSE 15 20 8 11 1010.8 1009.3 0.0
11/05:30am 26.4 22.8 4.8 25 11.0 SSE 13 19 7 10 1010.5 1009.0 0.0
11/05:00am 25.6 21.4 3.6 24 11.0 S 15 17 8 9 1009.8 1008.3 0.0
11/04:30am 25.8 21.8 3.1 23 11.2 S 13 15 7 8 1009.5 1008.0 0.0
11/04:00am 26.5 22.2 3.1 22 11.6 S 15 17 8 9 1009.5 1008.0 0.0
11/03:30am 26.3 22.3 2.9 22 11.6 S 13 17 7 9 1009.6 1008.1 0.0
11/03:00am 26.7 23.2 1.2 19 12.3 SSE 9 13 5 7 1009.5 1008.0 0.0
11/02:30am 25.8 22.2 0.5 19 11.9 SSE 9 9 5 5 1009.3 1007.8 0.0
11/02:00am 28.9 24.4 -0.3 15 13.9 SSE 13 15 7 8 1009.5 1008.0 0.0
11/01:30am 28.5 25.0 -1.6 14 13.9 SSE 7 9 4 5 1009.9 1008.4 0.0
11/01:00am 31.0 26.9 -2.9 11 15.7 SSE 9 11 5 6 1010.3 1008.8 0.0
11/12:30am 32.2 27.5 -2.0 11 16.2 SE 13 19 7 10 1010.2 1008.7 0.0
11/12:00am 30.3 26.1 -1.2 13 14.9 S 11 11 6 6 1010.0 1008.5 0.0
 
Date/Time
EST
Temp
°C
App
Temp
°C
Dew
Point
°C
Rel
Hum
%
Delta-T
°C
Wind Press
QNH
hPa
Press
MSL
hPa
Rain since
9am
mm
Dir  Spd
km/h
Gust
km/h
Spd
kts
Gust
kts
10/11:30pm 31.5 26.6 -0.2 13 15.4 S 15 17 8 9 1010.1 1008.6 0.0
10/11:00pm 32.9 27.7 -0.2 12 16.2 S 17 20 9 11 1010.1 1008.6 0.0
10/10:30pm 32.1 28.1 3.1 16 14.9 S 13 17 7 9 1010.1 1008.6 0.0
10/10:00pm 32.3 29.2 5.7 19 14.3 S 11 13 6 7 1010.0 1008.5 0.0
10/09:30pm 33.1 29.6 5.6 18 14.8 S 13 15 7 8 1009.8 1008.3 0.0
10/09:00pm 34.3 30.7 4.9 16 15.8 SSE 13 20 7 11 1009.6 1008.1 0.0
10/08:30pm 36.0 32.5 5.3 15 16.7 SE 13 17 7 9 1009.4 1007.9 0.0
10/08:00pm 36.6 32.0 5.8 15 17.0 ESE 19 26 10 14 1009.0 1007.5 0.0
10/07:30pm 37.4 34.7 5.4 14 17.6 E 9 13 5 7 1008.5 1007.0 0.0
10/07:00pm 38.4 35.1 6.2 14 18.0 ESE 13 17 7 9 1008.3 1006.8 0.0
10/06:30pm 38.8 35.7 5.4 13 18.5 SE 11 20 6 11 1007.8 1006.4 0.0
10/06:00pm 39.1 35.7 5.7 13 18.6 SSE 13 20 7 11 1007.7 1006.3 0.0
10/05:30pm 39.4 35.5 7.0 14 18.4 SE 17 22 9 12 1007.6 1006.2 0.0
10/05:00pm 38.9 33.6 6.6 14 18.2 SE 24 35 13 19 1007.7 1006.3 0.0
10/04:30pm 39.2 36.5 5.7 13 18.6 WNW 9 15 5 8 1007.7 1006.3 0.0
10/04:00pm 39.2 36.8 6.8 14 18.4 SW 9 15 5 8 1008.0 1006.5 0.0
10/03:30pm 39.3 35.4 6.9 14 18.4 S 17 24 9 13 1008.3 1006.8 0.0
10/03:00pm 39.4 36.2 7.0 14 18.4 W 13 19 7 10 1008.7 1007.2 0.0
10/02:30pm 38.9 35.9 7.6 15 17.9 W 13 20 7 11 1009.3 1007.8 0.0
10/02:00pm 38.9 36.3 7.6 15 17.9 SW 11 19 6 10 1009.8 1008.3 0.0
10/01:30pm 38.8 36.2 9.4 17 17.2 N 13 20 7 11 1010.3 1008.8 0.0
10/01:00pm 38.2 35.3 9.7 18 16.8 ENE 15 26 8 14 1010.6 1009.1 0.0
10/12:30pm 38.1 36.8 11.2 20 16.2 WNW 9 17 5 9 1011.0 1009.5 0.0
10/12:00pm 38.7 35.9 13.2 22 15.8 NNE 20 33 11 18 1011.4 1009.9 0.0
10/11:30am 36.6 35.2 13.4 25 14.3 NNW 13 20 7 11 1011.9 1010.5 0.0
10/11:00am 35.8 33.2 12.1 24 14.3 NNE 17 30 9 16 1012.5 1011.1 0.0
10/10:30am 35.3 32.6 11.7 24 14.1 NNE 17 24 9 13 1012.9 1011.5 0.0
10/10:00am 34.1 30.9 11.3 25 13.5 N 19 28 10 15 1013.2 1011.8 0.0
10/09:30am 33.7 29.7 8.3 21 14.3 NE 19 30 10 16 1013.4 1012.0 0.0
10/09:00am 32.7 28.4 5.3 18 14.7 NNE 17 24 9 13 1013.1 1011.7 0.0
10/08:30am 32.6 27.4 2.6 15 15.4 E 19 30 10 16 1013.2 1011.8 0.0
10/08:00am 31.9 25.9 1.1 14 15.3 ESE 22 28 12 15 1013.1 1011.7 0.0
10/07:30am 29.3 25.6 0.0 15 14.0 SSE 9 13 5 7 1012.8 1011.4 0.0
10/07:00am 27.8 25.5 0.5 17 13.1 SSE 2 9 1 5 1012.4 1011.0 0.0
10/06:30am 25.0 22.8 1.2 21 11.3 SSE 2 9 1 5 1012.1 1010.7 0.0
10/06:00am 26.2 22.5 0.0 18 12.3 SSE 9 11 5 6 1011.7 1010.3 0.0
10/05:30am 26.4 22.7 0.2 18 12.3 SSE 9 11 5 6 1011.4 1009.9 0.0
10/05:00am 25.9 21.9 0.5 19 12.0 SSE 11 13 6 7 1011.0 1009.5 0.0
10/04:30am 26.2 22.2 0.8 19 12.1 SSE 11 13 6 7 1010.9 1009.4 0.0
10/04:00am 26.6 23.1 1.1 19 12.2 SSE 9 11 5 6 1011.1 1009.6 0.0
10/03:30am 27.3 23.6 0.1 17 12.9 SSE 9 11 5 6 1011.1 1009.6 0.0
10/03:00am 28.9 24.8 -0.3 15 13.9 SSE 11 13 6 7 1011.1 1009.6 0.0
10/02:30am 29.8 24.5 -0.5 14 14.4 S 17 20 9 11 1010.7 1009.2 0.0
10/02:00am 30.7 24.9 0.2 14 14.8 SSW 20 28 11 15 1010.3 1008.8 0.0
10/01:30am 31.1 25.4 0.5 14 15.0 SSW 20 26 11 14 1010.5 1009.0 0.0
10/01:00am 31.7 25.3 1.0 14 15.2 S 24 35 13 19 1010.6 1009.1 0.0
10/12:30am 32.1 26.1 1.3 14 15.4 S 22 32 12 17 1010.7 1009.2 0.0
10/12:00am 32.3 27.1 2.4 15 15.2 SSW 19 26 10 14 1010.8 1009.3 0.0
 
Date/Time
EST
Temp
°C
App
Temp
°C
Dew
Point
°C
Rel
Hum
%
Delta-T
°C
Wind Press
QNH
hPa
Press
MSL
hPa
Rain since
9am
mm
Dir  Spd
km/h
Gust
km/h
Spd
kts
Gust
kts
09/11:30pm 32.3 27.1 2.4 15 15.2 SSW 19 24 10 13 1011.0 1009.5 0.0
09/11:00pm 33.0 27.7 2.9 15 15.5 SSW 20 26 11 14 1011.1 1009.6 0.0
09/10:30pm 33.4 28.2 2.3 14 15.9 SSW 19 22 10 12 1011.2 1009.7 0.0
09/10:00pm 33.6 28.4 2.4 14 16.0 SSW 19 22 10 12 1011.0 1009.5 0.0
09/09:30pm 33.7 29.3 2.5 14 16.0 SSW 15 20 8 11 1010.9 1009.4 0.0
09/09:00pm 34.9 30.1 2.4 13 16.8 S 17 20 9 11 1010.5 1009.0 0.0
09/08:30pm 35.7 31.0 3.0 13 17.1 S 17 24 9 13 1010.2 1008.7 0.0
09/08:00pm 36.4 31.2 2.5 12 17.7 S 19 22 10 12 1009.8 1008.3 0.0
09/07:30pm 37.2 31.9 3.1 12 18.1 S 20 26 11 14 1009.3 1007.8 0.0
09/07:00pm 38.2 32.5 2.6 11 18.8 S 22 33 12 18 1008.9 1007.4 0.0
09/06:30pm 39.3 32.9 3.4 11 19.3 S 26 35 14 19 1008.5 1007.0 0.0
09/06:00pm 39.6 34.6 3.7 11 19.5 SE 19 28 10 15 1008.3 1006.8 0.0
09/05:30pm 40.0 34.3 2.6 10 20.0 SSW 22 30 12 16 1008.1 1006.6 0.0
09/05:00pm 40.9 36.5 4.6 11 20.1 SSE 17 35 9 19 1007.8 1006.4 0.0
09/04:30pm 40.7 34.7 3.1 10 20.3 S 24 37 13 20 1008.1 1006.6 0.0
09/04:00pm 40.4 36.8 2.9 10 20.2 SW 11 22 6 12 1008.5 1007.0 0.0
09/03:30pm 40.4 34.3 2.9 10 20.1 SSW 24 33 13 18 1008.8 1007.3 0.0
09/03:00pm 40.6 35.3 3.1 10 20.3 S 20 32 11 17 1009.1 1007.6 0.0
09/02:30pm 40.1 35.9 4.0 11 19.7 S 15 26 8 14 1009.4 1007.9 0.0
09/02:00pm 40.1 35.2 4.0 11 19.7 S 19 35 10 19 1010.0 1008.5 0.0
09/01:30pm 40.1 34.5 5.3 12 19.3 SSE 24 33 13 18 1010.4 1008.9 0.0
09/01:00pm 39.7 34.0 5.0 12 19.2 SSE 24 39 13 21 1011.0 1009.5 0.0

Other Formats:

Comma delimited format used in spreadsheet applications
http://www.bom.gov.au/fwo/IDQ60801/IDQ60801.94335.axf

JavaScript Object Notation format (JSON) in row-major order
http://www.bom.gov.au/fwo/IDQ60801/IDQ60801.94335.json